sensor_id;sensor_type;location;lat;lon;timestamp;temperature;humidity
51305;HTU21D;37392;50.964;6.952;2023-08-21T07:24:57;36.01;49.35
51305;HTU21D;37392;50.964;6.952;2023-08-21T07:27:22;36.41;48.75
51305;HTU21D;37392;50.964;6.952;2023-08-21T07:29:48;36.34;48.41
51305;HTU21D;37392;50.964;6.952;2023-08-21T07:32:13;36.03;48.78
51305;HTU21D;37392;50.964;6.952;2023-08-21T07:34:39;35.88;49.30
51305;HTU21D;37392;50.964;6.952;2023-08-21T07:37:04;36.36;48.71
51305;HTU21D;37392;50.964;6.952;2023-08-21T07:39:32;36.71;47.86
51305;HTU21D;37392;50.964;6.952;2023-08-21T07:41:58;36.95;47.12
51305;HTU21D;37392;50.964;6.952;2023-08-21T07:44:23;37.02;47.02
51305;HTU21D;37392;50.964;6.952;2023-08-21T07:46:49;37.28;46.27
51305;HTU21D;37392;50.964;6.952;2023-08-21T07:49:14;36.83;46.59
51305;HTU21D;37392;50.964;6.952;2023-08-21T07:51:40;36.66;47.53
51305;HTU21D;37392;50.964;6.952;2023-08-21T07:54:05;36.70;46.97
51305;HTU21D;37392;50.964;6.952;2023-08-21T07:56:31;36.93;46.73
51305;HTU21D;37392;50.964;6.952;2023-08-21T07:58:57;37.64;45.70
51305;HTU21D;37392;50.964;6.952;2023-08-21T08:01:22;37.95;44.80
51305;HTU21D;37392;50.964;6.952;2023-08-21T08:03:48;38.33;43.95
51305;HTU21D;37392;50.964;6.952;2023-08-21T08:06:14;38.19;43.91
51305;HTU21D;37392;50.964;6.952;2023-08-21T08:08:40;38.32;43.89
51305;HTU21D;37392;50.964;6.952;2023-08-21T08:11:05;38.06;44.16
51305;HTU21D;37392;50.964;6.952;2023-08-21T08:13:32;37.76;44.67
51305;HTU21D;37392;50.964;6.952;2023-08-21T08:15:57;38.38;43.79
51305;HTU21D;37392;50.964;6.952;2023-08-21T08:18:23;38.65;43.26
51305;HTU21D;37392;50.964;6.952;2023-08-21T08:20:49;39.05;42.82
51305;HTU21D;37392;50.964;6.952;2023-08-21T08:23:14;39.15;42.63
51305;HTU21D;37392;50.964;6.952;2023-08-21T08:25:39;38.81;42.98
51305;HTU21D;37392;50.964;6.952;2023-08-21T08:28:05;39.35;42.32
51305;HTU21D;37392;50.964;6.952;2023-08-21T08:30:31;39.13;42.39
51305;HTU21D;37392;50.964;6.952;2023-08-21T08:32:56;39.41;41.90
51305;HTU21D;37392;50.964;6.952;2023-08-21T08:35:22;39.54;41.95
51305;HTU21D;37392;50.964;6.952;2023-08-21T08:37:47;39.61;41.49
51305;HTU21D;37392;50.964;6.952;2023-08-21T08:40:13;39.34;41.61
51305;HTU21D;37392;50.964;6.952;2023-08-21T08:42:39;39.51;41.67
51305;HTU21D;37392;50.964;6.952;2023-08-21T08:45:05;39.52;41.78
51305;HTU21D;37392;50.964;6.952;2023-08-21T08:47:32;39.93;41.01
51305;HTU21D;37392;50.964;6.952;2023-08-21T08:50:05;40.23;40.15
51305;HTU21D;37392;50.964;6.952;2023-08-21T08:52:37;40.68;39.53
51305;HTU21D;37392;50.964;6.952;2023-08-21T08:55:03;40.59;39.57
51305;HTU21D;37392;50.964;6.952;2023-08-21T08:57:31;40.75;39.28
51305;HTU21D;37392;50.964;6.952;2023-08-21T08:59:57;39.89;40.88
51305;HTU21D;37392;50.964;6.952;2023-08-21T09:02:24;40.09;40.80
51305;HTU21D;37392;50.964;6.952;2023-08-21T09:04:51;40.69;40.36
51305;HTU21D;37392;50.964;6.952;2023-08-21T09:07:17;40.73;40.08
51305;HTU21D;37392;50.964;6.952;2023-08-21T09:09:48;41.00;39.99
51305;HTU21D;37392;50.964;6.952;2023-08-21T09:12:16;41.03;39.49
51305;HTU21D;37392;50.964;6.952;2023-08-21T09:14:43;40.81;39.75
51305;HTU21D;37392;50.964;6.952;2023-08-21T09:17:10;40.90;39.70
51305;HTU21D;37392;50.964;6.952;2023-08-21T09:19:36;40.68;39.82
51305;HTU21D;37392;50.964;6.952;2023-08-21T09:22:09;40.65;39.81
51305;HTU21D;37392;50.964;6.952;2023-08-21T09:24:38;41.03;39.54
51305;HTU21D;37392;50.964;6.952;2023-08-21T09:27:13;41.35;38.69
51305;HTU21D;37392;50.964;6.952;2023-08-21T09:29:41;41.45;38.86
51305;HTU21D;37392;50.964;6.952;2023-08-21T09:32:07;41.69;38.46
51305;HTU21D;37392;50.964;6.952;2023-08-21T09:34:36;41.73;38.59
51305;HTU21D;37392;50.964;6.952;2023-08-21T09:37:06;41.59;38.56
51305;HTU21D;37392;50.964;6.952;2023-08-21T09:39:34;41.95;38.25
51305;HTU21D;37392;50.964;6.952;2023-08-21T09:42:05;41.88;38.24
51305;HTU21D;37392;50.964;6.952;2023-08-21T09:44:40;41.81;38.09
51305;HTU21D;37392;50.964;6.952;2023-08-21T09:47:09;40.83;39.20
51305;HTU21D;37392;50.964;6.952;2023-08-21T09:49:36;40.87;39.70
51305;HTU21D;37392;50.964;6.952;2023-08-21T09:52:05;41.45;38.84
51305;HTU21D;37392;50.964;6.952;2023-08-21T09:54:33;41.51;38.17
51305;HTU21D;37392;50.964;6.952;2023-08-21T09:57:02;41.64;38.10
51305;HTU21D;37392;50.964;6.952;2023-08-21T09:59:29;42.04;37.75
51305;HTU21D;37392;50.964;6.952;2023-08-21T10:01:58;42.15;37.42
51305;HTU21D;37392;50.964;6.952;2023-08-21T10:04:28;42.14;37.55
51305;HTU21D;37392;50.964;6.952;2023-08-21T10:06:56;42.34;37.25
51305;HTU21D;37392;50.964;6.952;2023-08-21T10:09:23;42.55;36.74
51305;HTU21D;37392;50.964;6.952;2023-08-21T10:11:50;42.60;36.63
51305;HTU21D;37392;50.964;6.952;2023-08-21T10:14:17;42.47;36.79
51305;HTU21D;37392;50.964;6.952;2023-08-21T10:16:43;42.10;37.14
51305;HTU21D;37392;50.964;6.952;2023-08-21T10:19:14;41.61;37.75
51305;HTU21D;37392;50.964;6.952;2023-08-21T10:21:40;41.40;38.20
51305;HTU21D;37392;50.964;6.952;2023-08-21T10:24:05;41.43;38.04
51305;HTU21D;37392;50.964;6.952;2023-08-21T10:26:38;41.40;38.27
51305;HTU21D;37392;50.964;6.952;2023-08-21T10:29:04;41.87;37.86
51305;HTU21D;37392;50.964;6.952;2023-08-21T10:31:38;42.52;36.85
51305;HTU21D;37392;50.964;6.952;2023-08-21T10:34:12;42.23;36.98
51305;HTU21D;37392;50.964;6.952;2023-08-21T10:39:17;41.43;38.20
51305;HTU21D;37392;50.964;6.952;2023-08-21T10:42:07;41.35;38.57
51305;HTU21D;37392;50.964;6.952;2023-08-21T10:49:59;42.18;37.60
51305;HTU21D;37392;50.964;6.952;2023-08-21T10:52:27;42.45;36.90
51305;HTU21D;37392;50.964;6.952;2023-08-21T10:54:55;42.00;37.30
51305;HTU21D;37392;50.964;6.952;2023-08-21T10:57:23;41.65;37.84
51305;HTU21D;37392;50.964;6.952;2023-08-21T10:59:57;41.42;38.17
51305;HTU21D;37392;50.964;6.952;2023-08-21T11:02:32;41.24;38.07
51305;HTU21D;37392;50.964;6.952;2023-08-21T11:04:59;40.15;39.60
51305;HTU21D;37392;50.964;6.952;2023-08-21T11:07:26;38.82;41.91
51305;HTU21D;37392;50.964;6.952;2023-08-21T11:09:52;37.89;43.82
51305;HTU21D;37392;50.964;6.952;2023-08-21T11:12:21;37.32;45.07
51305;HTU21D;37392;50.964;6.952;2023-08-21T11:14:47;37.14;45.95
51305;HTU21D;37392;50.964;6.952;2023-08-21T11:17:14;37.07;45.78
51305;HTU21D;37392;50.964;6.952;2023-08-21T11:19:40;37.06;45.57
51305;HTU21D;37392;50.964;6.952;2023-08-21T11:22:07;36.43;46.35
51305;HTU21D;37392;50.964;6.952;2023-08-21T11:24:46;35.75;47.74
51305;HTU21D;37392;50.964;6.952;2023-08-21T11:27:17;35.51;48.79
51305;HTU21D;37392;50.964;6.952;2023-08-21T11:29:49;35.72;48.69
51305;HTU21D;37392;50.964;6.952;2023-08-21T11:32:23;35.73;48.29
51305;HTU21D;37392;50.964;6.952;2023-08-21T11:34:56;35.69;48.29
51305;HTU21D;37392;50.964;6.952;2023-08-21T11:37:24;35.33;48.88
51305;HTU21D;37392;50.964;6.952;2023-08-21T11:42:32;34.23;50.59
51305;HTU21D;37392;50.964;6.952;2023-08-21T11:44:59;33.63;51.90
51305;HTU21D;37392;50.964;6.952;2023-08-21T11:47:34;33.19;53.14
51305;HTU21D;37392;50.964;6.952;2023-08-21T11:50:05;33.11;53.33
51305;HTU21D;37392;50.964;6.952;2023-08-21T11:52:32;33.31;53.08
51305;HTU21D;37392;50.964;6.952;2023-08-21T11:54:58;33.32;52.80
51305;HTU21D;37392;50.964;6.952;2023-08-21T11:57:24;33.32;52.78
51305;HTU21D;37392;50.964;6.952;2023-08-21T11:59:54;33.33;52.75
51305;HTU21D;37392;50.964;6.952;2023-08-21T12:02:24;33.52;52.42
51305;HTU21D;37392;50.964;6.952;2023-08-21T12:05:04;33.53;52.03
51305;HTU21D;37392;50.964;6.952;2023-08-21T12:07:34;33.40;52.50
51305;HTU21D;37392;50.964;6.952;2023-08-21T12:10:00;33.36;52.53
51305;HTU21D;37392;50.964;6.952;2023-08-21T12:12:26;33.50;52.11
51305;HTU21D;37392;50.964;6.952;2023-08-21T12:14:51;33.49;51.96
51305;HTU21D;37392;50.964;6.952;2023-08-21T12:17:17;33.22;52.36
51305;HTU21D;37392;50.964;6.952;2023-08-21T12:19:42;33.04;52.88
51305;HTU21D;37392;50.964;6.952;2023-08-21T12:22:08;32.96;52.93
51305;HTU21D;37392;50.964;6.952;2023-08-21T12:24:34;32.87;53.18
51305;HTU21D;37392;50.964;6.952;2023-08-21T12:27:00;32.81;53.39
51305;HTU21D;37392;50.964;6.952;2023-08-21T12:29:26;32.50;53.90
51305;HTU21D;37392;50.964;6.952;2023-08-21T12:31:51;32.37;54.24
51305;HTU21D;37392;50.964;6.952;2023-08-21T12:34:17;32.30;54.26
51305;HTU21D;37392;50.964;6.952;2023-08-21T12:36:42;32.15;54.54
51305;HTU21D;37392;50.964;6.952;2023-08-21T12:39:11;32.12;54.75
51305;HTU21D;37392;50.964;6.952;2023-08-21T12:41:36;32.14;54.75
51305;HTU21D;37392;50.964;6.952;2023-08-21T12:44:02;32.15;54.67
51305;HTU21D;37392;50.964;6.952;2023-08-21T12:46:28;32.03;54.66
51305;HTU21D;37392;50.964;6.952;2023-08-21T12:48:55;31.95;55.06
51305;HTU21D;37392;50.964;6.952;2023-08-21T12:51:22;31.73;54.23
51305;HTU21D;37392;50.964;6.952;2023-08-21T12:53:47;31.51;54.44
51305;HTU21D;37392;50.964;6.952;2023-08-21T12:56:13;31.30;54.96
51305;HTU21D;37392;50.964;6.952;2023-08-21T12:58:39;31.14;55.97
51305;HTU21D;37392;50.964;6.952;2023-08-21T13:01:04;31.07;56.37
51305;HTU21D;37392;50.964;6.952;2023-08-21T13:03:30;31.09;56.26
51305;HTU21D;37392;50.964;6.952;2023-08-21T13:05:58;31.16;56.04
51305;HTU21D;37392;50.964;6.952;2023-08-21T13:08:24;31.09;55.81
51305;HTU21D;37392;50.964;6.952;2023-08-21T13:10:49;30.87;56.02
51305;HTU21D;37392;50.964;6.952;2023-08-21T13:13:15;30.82;56.05
51305;HTU21D;37392;50.964;6.952;2023-08-21T13:15:41;30.67;56.53
51305;HTU21D;37392;50.964;6.952;2023-08-21T13:18:10;30.70;57.45
51305;HTU21D;37392;50.964;6.952;2023-08-21T13:20:38;30.79;56.93
51305;HTU21D;37392;50.964;6.952;2023-08-21T13:23:04;30.77;56.45
51305;HTU21D;37392;50.964;6.952;2023-08-21T13:25:29;30.68;56.07
51305;HTU21D;37392;50.964;6.952;2023-08-21T13:27:55;30.44;55.76
51305;HTU21D;37392;50.964;6.952;2023-08-21T13:30:23;30.21;56.39
51305;HTU21D;37392;50.964;6.952;2023-08-21T13:32:49;30.28;56.95
51305;HTU21D;37392;50.964;6.952;2023-08-21T13:35:14;30.26;56.81
51305;HTU21D;37392;50.964;6.952;2023-08-21T13:37:40;30.34;56.85
51305;HTU21D;37392;50.964;6.952;2023-08-21T13:40:06;30.44;56.26
51305;HTU21D;37392;50.964;6.952;2023-08-21T13:42:37;30.47;55.42
51305;HTU21D;37392;50.964;6.952;2023-08-21T13:45:07;30.47;55.68
51305;HTU21D;37392;50.964;6.952;2023-08-21T13:47:40;30.52;55.25
51305;HTU21D;37392;50.964;6.952;2023-08-21T13:50:07;30.54;54.98
51305;HTU21D;37392;50.964;6.952;2023-08-21T13:52:34;30.52;55.04
51305;HTU21D;37392;50.964;6.952;2023-08-21T13:55:00;30.38;55.30
51305;HTU21D;37392;50.964;6.952;2023-08-21T13:57:28;30.19;55.49
51305;HTU21D;37392;50.964;6.952;2023-08-21T13:59:58;30.07;55.65
51305;HTU21D;37392;50.964;6.952;2023-08-21T14:02:24;30.02;55.42
51305;HTU21D;37392;50.964;6.952;2023-08-21T14:04:49;30.01;55.69
51305;HTU21D;37392;50.964;6.952;2023-08-21T14:07:15;30.01;56.52
51305;HTU21D;37392;50.964;6.952;2023-08-21T14:09:41;30.02;57.00
51305;HTU21D;37392;50.964;6.952;2023-08-21T14:12:06;30.00;56.58
51305;HTU21D;37392;50.964;6.952;2023-08-21T14:14:33;30.03;56.37
51305;HTU21D;37392;50.964;6.952;2023-08-21T14:16:59;30.00;56.36
51305;HTU21D;37392;50.964;6.952;2023-08-21T14:19:25;29.85;57.23
51305;HTU21D;37392;50.964;6.952;2023-08-21T14:21:50;29.83;57.90
51305;HTU21D;37392;50.964;6.952;2023-08-21T14:24:16;29.90;57.11
51305;HTU21D;37392;50.964;6.952;2023-08-21T14:26:42;29.93;56.81
51305;HTU21D;37392;50.964;6.952;2023-08-21T14:29:08;29.85;56.81
51305;HTU21D;37392;50.964;6.952;2023-08-21T14:31:33;29.76;57.24
51305;HTU21D;37392;50.964;6.952;2023-08-21T14:33:59;29.77;57.04
51305;HTU21D;37392;50.964;6.952;2023-08-21T14:36:24;29.79;56.97
51305;HTU21D;37392;50.964;6.952;2023-08-21T14:38:50;29.79;56.83
51305;HTU21D;37392;50.964;6.952;2023-08-21T14:41:19;29.80;56.79
51305;HTU21D;37392;50.964;6.952;2023-08-21T14:43:44;29.77;56.38
51305;HTU21D;37392;50.964;6.952;2023-08-21T14:46:10;29.63;56.12
51305;HTU21D;37392;50.964;6.952;2023-08-21T14:48:36;29.50;55.77
51305;HTU21D;37392;50.964;6.952;2023-08-21T14:51:03;29.35;56.42
51305;HTU21D;37392;50.964;6.952;2023-08-21T14:53:29;29.31;56.94
51305;HTU21D;37392;50.964;6.952;2023-08-21T14:55:55;29.30;57.44
51305;HTU21D;37392;50.964;6.952;2023-08-21T14:58:20;29.34;57.34
51305;HTU21D;37392;50.964;6.952;2023-08-21T15:00:46;29.35;57.42
51305;HTU21D;37392;50.964;6.952;2023-08-21T15:03:11;29.34;57.16
51305;HTU21D;37392;50.964;6.952;2023-08-21T15:05:37;29.34;56.87
51305;HTU21D;37392;50.964;6.952;2023-08-21T15:08:03;29.32;56.55
51305;HTU21D;37392;50.964;6.952;2023-08-21T15:10:28;29.31;56.54
51305;HTU21D;37392;50.964;6.952;2023-08-21T15:12:54;29.15;56.56
51305;HTU21D;37392;50.964;6.952;2023-08-21T15:15:20;29.05;56.78
51305;HTU21D;37392;50.964;6.952;2023-08-21T15:17:48;28.97;57.29
51305;HTU21D;37392;50.964;6.952;2023-08-21T15:20:14;28.91;57.59
51305;HTU21D;37392;50.964;6.952;2023-08-21T15:22:41;28.87;57.19
51305;HTU21D;37392;50.964;6.952;2023-08-21T15:25:08;28.84;57.64
51305;HTU21D;37392;50.964;6.952;2023-08-21T15:27:34;28.79;57.45
51305;HTU21D;37392;50.964;6.952;2023-08-21T15:30:00;28.75;57.39
51305;HTU21D;37392;50.964;6.952;2023-08-21T15:32:26;28.69;57.26
51305;HTU21D;37392;50.964;6.952;2023-08-21T15:34:52;28.59;57.95
51305;HTU21D;37392;50.964;6.952;2023-08-21T15:37:17;28.55;58.24
51305;HTU21D;37392;50.964;6.952;2023-08-21T15:39:46;28.56;58.52
51305;HTU21D;37392;50.964;6.952;2023-08-21T15:42:11;28.58;58.58
51305;HTU21D;37392;50.964;6.952;2023-08-21T15:44:37;28.54;58.87
51305;HTU21D;37392;50.964;6.952;2023-08-21T15:47:02;28.52;59.27
51305;HTU21D;37392;50.964;6.952;2023-08-21T15:49:28;28.50;59.25
51305;HTU21D;37392;50.964;6.952;2023-08-21T15:51:54;28.42;59.35
51305;HTU21D;37392;50.964;6.952;2023-08-21T15:54:20;28.39;59.67
51305;HTU21D;37392;50.964;6.952;2023-08-21T15:56:46;28.32;59.82
51305;HTU21D;37392;50.964;6.952;2023-08-21T15:59:11;28.27;59.65
51305;HTU21D;37392;50.964;6.952;2023-08-21T16:01:37;28.26;60.16
51305;HTU21D;37392;50.964;6.952;2023-08-21T16:04:03;28.23;59.83
51305;HTU21D;37392;50.964;6.952;2023-08-21T16:06:28;28.17;59.66
51305;HTU21D;37392;50.964;6.952;2023-08-21T16:08:54;28.16;59.99
51305;HTU21D;37392;50.964;6.952;2023-08-21T16:11:19;28.13;60.47
51305;HTU21D;37392;50.964;6.952;2023-08-21T16:13:45;28.08;60.57
51305;HTU21D;37392;50.964;6.952;2023-08-21T16:16:10;28.04;60.73
51305;HTU21D;37392;50.964;6.952;2023-08-21T16:18:36;27.96;60.71
51305;HTU21D;37392;50.964;6.952;2023-08-21T16:21:06;27.97;60.87
51305;HTU21D;37392;50.964;6.952;2023-08-21T16:23:32;27.89;60.91
51305;HTU21D;37392;50.964;6.952;2023-08-21T16:25:58;27.83;61.03
51305;HTU21D;37392;50.964;6.952;2023-08-21T16:28:24;27.80;61.62
51305;HTU21D;37392;50.964;6.952;2023-08-21T16:30:49;27.76;61.91
51305;HTU21D;37392;50.964;6.952;2023-08-21T16:33:15;27.70;61.65
51305;HTU21D;37392;50.964;6.952;2023-08-21T16:35:40;27.63;61.87
51305;HTU21D;37392;50.964;6.952;2023-08-21T16:38:06;27.56;61.96
51305;HTU21D;37392;50.964;6.952;2023-08-21T16:40:32;27.49;62.28
51305;HTU21D;37392;50.964;6.952;2023-08-21T16:42:58;27.42;62.67
51305;HTU21D;37392;50.964;6.952;2023-08-21T16:45:24;27.45;62.71
51305;HTU21D;37392;50.964;6.952;2023-08-21T16:47:49;27.43;62.49
51305;HTU21D;37392;50.964;6.952;2023-08-21T16:50:16;27.40;62.48
51305;HTU21D;37392;50.964;6.952;2023-08-21T16:52:42;27.36;62.76
51305;HTU21D;37392;50.964;6.952;2023-08-21T16:55:08;27.29;63.42
51305;HTU21D;37392;50.964;6.952;2023-08-21T16:57:34;27.25;63.11
51305;HTU21D;37392;50.964;6.952;2023-08-21T16:59:59;27.26;62.91
51305;HTU21D;37392;50.964;6.952;2023-08-21T17:02:25;27.24;63.16
51305;HTU21D;37392;50.964;6.952;2023-08-21T17:04:56;27.21;63.13
51305;HTU21D;37392;50.964;6.952;2023-08-21T17:07:23;27.12;63.34
51305;HTU21D;37392;50.964;6.952;2023-08-21T17:09:49;27.05;63.49
51305;HTU21D;37392;50.964;6.952;2023-08-21T17:12:14;26.97;63.85
51305;HTU21D;37392;50.964;6.952;2023-08-21T17:14:40;26.91;64.14
51305;HTU21D;37392;50.964;6.952;2023-08-21T17:17:06;26.84;64.53
51305;HTU21D;37392;50.964;6.952;2023-08-21T17:19:31;26.76;64.46
51305;HTU21D;37392;50.964;6.952;2023-08-21T17:21:57;26.68;64.72
51305;HTU21D;37392;50.964;6.952;2023-08-21T17:24:23;26.64;64.81
51305;HTU21D;37392;50.964;6.952;2023-08-21T17:26:48;26.57;65.01
51305;HTU21D;37392;50.964;6.952;2023-08-21T17:29:14;26.52;65.16
51305;HTU21D;37392;50.964;6.952;2023-08-21T17:31:39;26.47;65.37
51305;HTU21D;37392;50.964;6.952;2023-08-21T17:34:05;26.39;65.68
51305;HTU21D;37392;50.964;6.952;2023-08-21T17:36:30;26.38;65.82
51305;HTU21D;37392;50.964;6.952;2023-08-21T17:38:56;26.28;66.01
51305;HTU21D;37392;50.964;6.952;2023-08-21T17:41:21;26.23;66.11
51305;HTU21D;37392;50.964;6.952;2023-08-21T17:43:47;26.19;66.15
51305;HTU21D;37392;50.964;6.952;2023-08-21T17:46:13;26.15;66.49
51305;HTU21D;37392;50.964;6.952;2023-08-21T17:48:38;26.06;66.62
51305;HTU21D;37392;50.964;6.952;2023-08-21T17:51:05;26.02;66.95
51305;HTU21D;37392;50.964;6.952;2023-08-21T17:53:31;25.96;67.21
51305;HTU21D;37392;50.964;6.952;2023-08-21T17:55:59;25.89;67.62
51305;HTU21D;37392;50.964;6.952;2023-08-21T17:58:25;25.82;67.85
51305;HTU21D;37392;50.964;6.952;2023-08-21T18:00:51;25.73;68.20
51305;HTU21D;37392;50.964;6.952;2023-08-21T18:03:16;25.64;68.60
51305;HTU21D;37392;50.964;6.952;2023-08-21T18:05:42;25.58;68.94
51305;HTU21D;37392;50.964;6.952;2023-08-21T18:08:07;25.51;69.20
51305;HTU21D;37392;50.964;6.952;2023-08-21T18:10:33;25.42;69.65
51305;HTU21D;37392;50.964;6.952;2023-08-21T18:12:59;25.29;70.00
51305;HTU21D;37392;50.964;6.952;2023-08-21T18:15:24;25.21;70.35
51305;HTU21D;37392;50.964;6.952;2023-08-21T18:17:51;25.12;70.62
51305;HTU21D;37392;50.964;6.952;2023-08-21T18:20:17;25.00;70.95
51305;HTU21D;37392;50.964;6.952;2023-08-21T18:22:46;24.94;71.35
51305;HTU21D;37392;50.964;6.952;2023-08-21T18:25:11;24.88;71.71
51305;HTU21D;37392;50.964;6.952;2023-08-21T18:27:37;24.80;71.94
51305;HTU21D;37392;50.964;6.952;2023-08-21T18:30:03;24.70;72.25
51305;HTU21D;37392;50.964;6.952;2023-08-21T18:32:29;24.63;72.65
51305;HTU21D;37392;50.964;6.952;2023-08-21T18:34:55;24.56;73.00
51305;HTU21D;37392;50.964;6.952;2023-08-21T18:37:20;24.48;73.31
51305;HTU21D;37392;50.964;6.952;2023-08-21T18:39:46;24.43;73.77
51305;HTU21D;37392;50.964;6.952;2023-08-21T18:42:11;24.36;74.04
51305;HTU21D;37392;50.964;6.952;2023-08-21T18:44:38;24.27;74.33
51305;HTU21D;37392;50.964;6.952;2023-08-21T18:47:03;24.19;74.70
51305;HTU21D;37392;50.964;6.952;2023-08-21T18:49:29;24.12;75.14
51305;HTU21D;37392;50.964;6.952;2023-08-21T18:51:55;24.05;75.53
51305;HTU21D;37392;50.964;6.952;2023-08-21T18:54:20;24.00;75.92
51305;HTU21D;37392;50.964;6.952;2023-08-21T18:56:48;23.92;76.15
51305;HTU21D;37392;50.964;6.952;2023-08-21T18:59:15;23.83;76.60
51305;HTU21D;37392;50.964;6.952;2023-08-21T19:01:41;23.77;76.90
51305;HTU21D;37392;50.964;6.952;2023-08-21T19:04:07;23.64;77.23
51305;HTU21D;37392;50.964;6.952;2023-08-21T19:06:32;23.56;77.71
51305;HTU21D;37392;50.964;6.952;2023-08-21T19:08:58;23.46;78.15
51305;HTU21D;37392;50.964;6.952;2023-08-21T19:11:23;23.40;78.56
51305;HTU21D;37392;50.964;6.952;2023-08-21T19:13:49;23.26;78.63
51305;HTU21D;37392;50.964;6.952;2023-08-21T19:16:15;23.23;79.45
51305;HTU21D;37392;50.964;6.952;2023-08-21T19:18:41;23.24;79.51
51305;HTU21D;37392;50.964;6.952;2023-08-21T19:21:07;23.21;79.71
51305;HTU21D;37392;50.964;6.952;2023-08-21T19:23:33;23.20;79.95
51305;HTU21D;37392;50.964;6.952;2023-08-21T19:25:58;23.14;79.95
51305;HTU21D;37392;50.964;6.952;2023-08-21T19:28:23;23.11;80.29
51305;HTU21D;37392;50.964;6.952;2023-08-21T19:30:52;23.07;80.63
51305;HTU21D;37392;50.964;6.952;2023-08-21T19:33:18;23.08;80.90
51305;HTU21D;37392;50.964;6.952;2023-08-21T19:35:46;23.06;80.99
51305;HTU21D;37392;50.964;6.952;2023-08-21T19:38:14;22.97;81.16
51305;HTU21D;37392;50.964;6.952;2023-08-21T19:40:40;22.92;81.12
51305;HTU21D;37392;50.964;6.952;2023-08-21T19:43:08;22.88;81.64
51305;HTU21D;37392;50.964;6.952;2023-08-21T19:45:34;22.86;82.09
51305;HTU21D;37392;50.964;6.952;2023-08-21T19:48:02;22.81;82.36
51305;HTU21D;37392;50.964;6.952;2023-08-21T19:50:28;22.79;82.45
51305;HTU21D;37392;50.964;6.952;2023-08-21T19:52:53;22.78;82.57
51305;HTU21D;37392;50.964;6.952;2023-08-21T19:55:22;22.75;83.05
51305;HTU21D;37392;50.964;6.952;2023-08-21T19:57:47;22.64;83.08
51305;HTU21D;37392;50.964;6.952;2023-08-21T20:00:13;22.52;83.06
51305;HTU21D;37392;50.964;6.952;2023-08-21T20:02:39;22.43;84.11
51305;HTU21D;37392;50.964;6.952;2023-08-21T20:05:05;22.39;83.94
51305;HTU21D;37392;50.964;6.952;2023-08-21T20:07:31;22.39;84.10
51305;HTU21D;37392;50.964;6.952;2023-08-21T20:09:57;22.46;84.10
51305;HTU21D;37392;50.964;6.952;2023-08-21T20:12:22;22.46;84.17
51305;HTU21D;37392;50.964;6.952;2023-08-21T20:14:48;22.42;84.31
51305;HTU21D;37392;50.964;6.952;2023-08-21T20:17:14;22.38;84.73
51305;HTU21D;37392;50.964;6.952;2023-08-21T20:19:39;22.37;85.18
51305;HTU21D;37392;50.964;6.952;2023-08-21T20:22:05;22.35;85.27
51305;HTU21D;37392;50.964;6.952;2023-08-21T20:24:31;22.28;85.21
51305;HTU21D;37392;50.964;6.952;2023-08-21T20:26:57;22.22;85.61
51305;HTU21D;37392;50.964;6.952;2023-08-21T20:29:22;22.12;85.89
51305;HTU21D;37392;50.964;6.952;2023-08-21T20:31:48;22.05;86.20
51305;HTU21D;37392;50.964;6.952;2023-08-21T20:34:15;22.09;86.73
51305;HTU21D;37392;50.964;6.952;2023-08-21T20:36:41;22.10;86.83
51305;HTU21D;37392;50.964;6.952;2023-08-21T20:39:06;22.11;86.79
51305;HTU21D;37392;50.964;6.952;2023-08-21T20:41:32;22.09;86.74
51305;HTU21D;37392;50.964;6.952;2023-08-21T20:44:00;21.99;86.84
51305;HTU21D;37392;50.964;6.952;2023-08-21T20:46:26;21.93;87.07
51305;HTU21D;37392;50.964;6.952;2023-08-21T20:48:54;21.84;87.48
51305;HTU21D;37392;50.964;6.952;2023-08-21T20:51:20;21.76;87.51
51305;HTU21D;37392;50.964;6.952;2023-08-21T20:53:46;21.67;87.81
51305;HTU21D;37392;50.964;6.952;2023-08-21T20:56:11;21.66;88.57
51305;HTU21D;37392;50.964;6.952;2023-08-21T20:58:37;21.67;89.11
51305;HTU21D;37392;50.964;6.952;2023-08-21T21:01:03;21.68;89.00
51305;HTU21D;37392;50.964;6.952;2023-08-21T21:03:28;21.73;88.87
51305;HTU21D;37392;50.964;6.952;2023-08-21T21:05:57;21.73;89.01
51305;HTU21D;37392;50.964;6.952;2023-08-21T21:08:23;21.69;88.75
51305;HTU21D;37392;50.964;6.952;2023-08-21T21:10:48;21.63;88.86
51305;HTU21D;37392;50.964;6.952;2023-08-21T21:13:14;21.53;88.99
51305;HTU21D;37392;50.964;6.952;2023-08-21T21:15:39;21.50;89.29
51305;HTU21D;37392;50.964;6.952;2023-08-21T21:18:05;21.45;89.50
51305;HTU21D;37392;50.964;6.952;2023-08-21T21:20:31;21.44;89.98
51305;HTU21D;37392;50.964;6.952;2023-08-21T21:22:56;21.42;90.18
51305;HTU21D;37392;50.964;6.952;2023-08-21T21:25:22;21.35;90.29
51305;HTU21D;37392;50.964;6.952;2023-08-21T21:27:48;21.31;90.54
51305;HTU21D;37392;50.964;6.952;2023-08-21T21:30:13;21.24;90.92
51305;HTU21D;37392;50.964;6.952;2023-08-21T21:32:39;21.22;91.40
51305;HTU21D;37392;50.964;6.952;2023-08-21T21:35:04;21.22;91.58
51305;HTU21D;37392;50.964;6.952;2023-08-21T21:37:30;21.11;91.21
51305;HTU21D;37392;50.964;6.952;2023-08-21T21:39:58;21.02;91.50
51305;HTU21D;37392;50.964;6.952;2023-08-21T21:42:23;20.91;91.64
51305;HTU21D;37392;50.964;6.952;2023-08-21T21:44:52;20.77;91.89
51305;HTU21D;37392;50.964;6.952;2023-08-21T21:47:18;20.71;92.72
51305;HTU21D;37392;50.964;6.952;2023-08-21T21:49:43;20.69;93.03
51305;HTU21D;37392;50.964;6.952;2023-08-21T21:52:09;20.66;93.38
51305;HTU21D;37392;50.964;6.952;2023-08-21T21:54:34;20.76;94.51
51305;HTU21D;37392;50.964;6.952;2023-08-21T21:57:00;20.75;93.85
51305;HTU21D;37392;50.964;6.952;2023-08-21T21:59:25;20.69;93.56
51305;HTU21D;37392;50.964;6.952;2023-08-21T22:01:51;20.64;93.73
51305;HTU21D;37392;50.964;6.952;2023-08-21T22:04:16;20.56;93.86
51305;HTU21D;37392;50.964;6.952;2023-08-21T22:06:42;20.50;94.66
51305;HTU21D;37392;50.964;6.952;2023-08-21T22:09:07;20.46;94.52
51305;HTU21D;37392;50.964;6.952;2023-08-21T22:11:33;20.35;94.50
51305;HTU21D;37392;50.964;6.952;2023-08-21T22:13:58;20.34;95.02
51305;HTU21D;37392;50.964;6.952;2023-08-21T22:16:24;20.40;95.80
51305;HTU21D;37392;50.964;6.952;2023-08-21T22:18:49;20.37;95.34
51305;HTU21D;37392;50.964;6.952;2023-08-21T22:21:15;20.29;95.20
51305;HTU21D;37392;50.964;6.952;2023-08-21T22:23:40;20.25;95.67
51305;HTU21D;37392;50.964;6.952;2023-08-21T22:26:06;20.22;96.35
51305;HTU21D;37392;50.964;6.952;2023-08-21T22:28:31;20.25;96.67
51305;HTU21D;37392;50.964;6.952;2023-08-21T22:30:58;20.26;96.96
51305;HTU21D;37392;50.964;6.952;2023-08-21T22:33:23;20.22;96.52
51305;HTU21D;37392;50.964;6.952;2023-08-21T22:35:49;20.16;96.42
51305;HTU21D;37392;50.964;6.952;2023-08-21T22:38:14;20.11;96.84
51305;HTU21D;37392;50.964;6.952;2023-08-21T22:40:40;20.06;97.05
51305;HTU21D;37392;50.964;6.952;2023-08-21T22:43:05;19.97;97.22
51305;HTU21D;37392;50.964;6.952;2023-08-21T22:45:31;19.90;97.23